Time;durP1;ratioP1;P1;durP2;ratioP2;P2;SDS_P1;SDS_P2;PMS_P1;PMS_P2;Temp;Humidity;BMP_temperature;BMP_pressure;BME280_temperature;BME280_humidity;BME280_pressure;Samples;Min_cycle;Max_cycle;Signal;HPM_P1;HPM_P2
2020/12/05 00:02:22;;;;;;;47.45;42.65;;;3.50;84.40;;;;;;4994033;28;20289;-77
2020/12/05 00:04:49;;;;;;;46.03;41.47;;;3.60;85.10;;;;;;4993939;28;20722;-77
2020/12/05 00:07:16;;;;;;;44.50;39.88;;;3.70;83.50;;;;;;4994275;28;20215;-77
2020/12/05 00:09:42;;;;;;;44.50;40.15;;;3.70;82.50;;;;;;4994252;28;20213;-77
2020/12/05 00:12:10;;;;;;;45.63;41.13;;;3.50;82.90;;;;;;4994320;28;20195;-77
2020/12/05 00:14:37;;;;;;;43.45;39.13;;;3.50;83.10;;;;;;4994165;28;20195;-77
2020/12/05 00:17:04;;;;;;;42.78;38.78;;;3.70;82.50;;;;;;4993786;28;20214;-77
2020/12/05 00:19:31;;;;;;;43.08;39.10;;;3.70;82.50;;;;;;4994185;28;20202;-77
2020/12/05 00:21:59;;;;;;;44.60;39.80;;;3.70;82.40;;;;;;4993987;28;20199;-77
2020/12/05 00:24:25;;;;;;;43.80;39.53;;;3.80;82.20;;;;;;4993686;28;20211;-77
2020/12/05 00:26:53;;;;;;;46.33;41.67;;;3.80;82.40;;;;;;4994013;28;20309;-77
2020/12/05 00:29:20;;;;;;;43.42;39.45;;;3.90;83.40;;;;;;4993790;28;20202;-77
2020/12/05 00:31:50;;;;;;;45.35;40.63;;;3.80;83.20;;;;;;4993768;28;20199;-77
2020/12/05 00:34:17;;;;;;;43.58;38.97;;;3.90;82.90;;;;;;4993659;28;20619;-77
2020/12/05 00:36:43;;;;;;;45.65;41.15;;;3.90;82.50;;;;;;4992947;28;20696;-77
2020/12/05 00:39:10;;;;;;;46.15;41.28;;;3.80;87.60;;;;;;4993811;28;20278;-77
2020/12/05 00:41:37;;;;;;;42.40;38.30;;;3.80;86.60;;;;;;4993799;28;20207;-77
2020/12/05 00:44:03;;;;;;;42.50;38.38;;;3.80;84.40;;;;;;4993419;28;20549;-77
2020/12/05 00:46:30;;;;;;;43.75;39.25;;;3.70;84.20;;;;;;4993493;28;20219;-77
2020/12/05 00:48:56;;;;;;;44.22;39.90;;;3.70;84.30;;;;;;4993686;28;20202;-77
2020/12/05 00:51:22;;;;;;;44.15;39.70;;;3.80;85.10;;;;;;4993702;28;20203;-77
2020/12/05 00:53:49;;;;;;;42.78;38.63;;;3.80;83.70;;;;;;4994500;28;20676;-77
2020/12/05 00:56:19;;;;;;;46.10;41.30;;;3.90;83.00;;;;;;5012958;28;20224;-77
2020/12/05 00:58:46;;;;;;;41.95;37.53;;;3.90;82.60;;;;;;5013298;28;20198;-77
2020/12/05 01:01:13;;;;;;;45.25;40.85;;;3.90;85.00;;;;;;5013002;28;20667;-77
2020/12/05 01:03:39;;;;;;;42.92;38.83;;;3.90;84.80;;;;;;4999763;28;20222;-77
2020/12/05 01:06:09;;;;;;;44.90;40.53;;;3.90;84.20;;;;;;4993249;28;20244;-77
2020/12/05 01:08:39;;;;;;;44.53;40.08;;;4.00;83.90;;;;;;4993357;28;20211;-77
2020/12/05 01:11:10;;;;;;;43.83;39.78;;;4.00;83.80;;;;;;4993586;28;20234;-77
2020/12/05 01:13:37;;;;;;;41.83;37.53;;;4.00;84.20;;;;;;4993573;28;20202;-77
2020/12/05 01:16:03;;;;;;;388.08;74.78;;;4.00;86.10;;;;;;4993099;28;20214;-77
2020/12/05 01:18:29;;;;;;;43.08;38.67;;;4.10;89.70;;;;;;4993219;28;20211;-77
2020/12/05 01:20:56;;;;;;;44.30;37.60;;;4.10;88.80;;;;;;4993312;28;20201;-77
2020/12/05 01:23:22;;;;;;;42.53;38.10;;;4.20;93.70;;;;;;4992770;28;20214;-77
2020/12/05 01:25:49;;;;;;;41.63;37.50;;;4.20;91.20;;;;;;4992455;28;20215;-77
2020/12/05 01:28:15;;;;;;;40.90;36.92;;;4.20;89.40;;;;;;4992960;28;20197;-77
2020/12/05 01:30:42;;;;;;;41.95;37.67;;;4.30;88.40;;;;;;4992997;28;20197;-77
2020/12/05 01:33:09;;;;;;;40.13;36.30;;;4.40;87.20;;;;;;4993165;28;20205;-77
2020/12/05 01:35:35;;;;;;;41.95;37.88;;;4.40;87.10;;;;;;4992312;28;20229;-77
2020/12/05 01:38:02;;;;;;;41.25;37.17;;;4.40;87.40;;;;;;4992882;28;20220;-77
2020/12/05 01:40:28;;;;;;;345.35;66.13;;;4.30;89.10;;;;;;4993135;28;20195;-77
2020/12/05 01:42:54;;;;;;;40.85;36.78;;;4.30;89.60;;;;;;4992890;28;20194;-77
2020/12/05 01:45:21;;;;;;;38.97;35.25;;;4.30;87.50;;;;;;4992802;28;20203;-77
2020/12/05 01:47:48;;;;;;;40.10;36.20;;;4.20;87.70;;;;;;4993103;28;20285;-77
2020/12/05 01:50:15;;;;;;;53.97;37.55;;;4.10;91.70;;;;;;4995592;28;20202;-77
2020/12/05 01:52:43;;;;;;;38.17;34.40;;;4.10;91.30;;;;;;4996592;28;20624;-77
2020/12/05 01:55:10;;;;;;;41.83;37.85;;;4.10;91.70;;;;;;4996808;28;20230;-77
2020/12/05 01:57:36;;;;;;;37.78;34.28;;;4.20;90.70;;;;;;4996622;28;20583;-77
2020/12/05 02:00:04;;;;;;;37.00;33.53;;;4.30;90.30;;;;;;4996819;28;20199;-77
2020/12/05 02:02:31;;;;;;;37.80;34.20;;;4.30;89.40;;;;;;4996517;28;20191;-77
2020/12/05 02:05:05;;;;;;;39.13;35.42;;;4.30;89.40;;;;;;4996757;28;20215;-77
2020/12/05 02:07:43;;;;;;;42.10;36.13;;;4.30;89.50;;;;;;4996616;28;20576;-77
2020/12/05 02:10:13;;;;;;;40.17;36.47;;;4.30;89.80;;;;;;4996644;28;20198;-77
2020/12/05 02:12:47;;;;;;;40.35;36.08;;;4.20;89.80;;;;;;4996525;28;20202;-77
2020/12/05 02:15:19;;;;;;;38.42;34.33;;;4.20;89.90;;;;;;4996559;28;20199;-77
2020/12/05 02:17:53;;;;;;;39.05;35.28;;;4.20;89.90;;;;;;4996467;28;20244;-77
2020/12/05 02:20:21;;;;;;;120.93;43.13;;;4.30;89.40;;;;;;4996509;28;20202;-77
2020/12/05 02:22:51;;;;;;;550.58;96.88;;;4.30;91.70;;;;;;4996090;28;20286;-77
2020/12/05 02:25:18;;;;;;;40.67;36.63;;;4.20;93.70;;;;;;4996034;28;20224;-76
2020/12/05 02:27:46;;;;;;;37.72;33.85;;;4.30;94.40;;;;;;4996135;28;20213;-77
2020/12/05 02:30:12;;;;;;;37.35;34.05;;;4.30;93.30;;;;;;4995984;28;20205;-77
2020/12/05 02:32:39;;;;;;;37.63;33.97;;;4.40;92.40;;;;;;4996237;28;20294;-77
2020/12/05 02:35:06;;;;;;;69.90;33.05;;;4.40;91.90;;;;;;4996058;28;20282;-77
2020/12/05 02:37:39;;;;;;;34.25;31.35;;;4.50;91.70;;;;;;4995987;28;20223;-77
2020/12/05 02:40:07;;;;;;;211.38;49.92;;;4.40;91.30;;;;;;4995643;28;20202;-77
2020/12/05 02:42:35;;;;;;;30.83;28.20;;;4.40;92.30;;;;;;4995662;28;20206;-76
2020/12/05 02:45:08;;;;;;;33.78;30.20;;;4.40;91.30;;;;;;4995779;28;20222;-77
2020/12/05 02:47:34;;;;;;;33.25;30.13;;;4.30;92.60;;;;;;4995767;28;20219;-76
2020/12/05 02:50:01;;;;;;;30.67;28.10;;;4.20;93.40;;;;;;4995982;28;20205;-77
2020/12/05 02:52:27;;;;;;;32.42;29.73;;;4.30;93.50;;;;;;4995268;28;20199;-77
2020/12/05 02:54:53;;;;;;;30.35;27.85;;;4.30;94.20;;;;;;4995833;28;20534;-77
2020/12/05 02:57:20;;;;;;;29.75;27.40;;;4.40;94.00;;;;;;4995408;28;20218;-77
2020/12/05 02:59:47;;;;;;;95.75;33.63;;;4.40;92.90;;;;;;4995303;28;20207;-76
2020/12/05 03:02:13;;;;;;;31.92;29.23;;;4.40;93.60;;;;;;4995657;28;20283;-77
2020/12/05 03:04:40;;;;;;;31.55;28.85;;;4.30;93.80;;;;;;4995738;28;20230;-77
2020/12/05 03:07:06;;;;;;;30.10;27.80;;;4.20;94.50;;;;;;4995685;28;20225;-77
2020/12/05 03:09:33;;;;;;;29.85;27.50;;;4.10;93.10;;;;;;4995504;28;20206;-77
2020/12/05 03:11:59;;;;;;;28.13;26.00;;;4.20;93.20;;;;;;4995373;28;20217;-77
2020/12/05 03:14:26;;;;;;;29.65;27.33;;;4.20;92.20;;;;;;4995595;28;20229;-77
2020/12/05 03:16:53;;;;;;;42.28;29.15;;;4.10;91.70;;;;;;4995138;28;20306;-77
2020/12/05 03:19:20;;;;;;;30.58;27.98;;;4.20;91.90;;;;;;4995292;28;20920;-77
2020/12/05 03:21:47;;;;;;;53.85;29.13;;;4.20;91.50;;;;;;4994795;28;20195;-77
2020/12/05 03:24:13;;;;;;;342.08;57.42;;;4.20;93.10;;;;;;4995006;28;20297;-77
2020/12/05 03:26:39;;;;;;;29.40;27.20;;;4.20;94.10;;;;;;4995006;28;20219;-77
2020/12/05 03:29:06;;;;;;;29.15;26.67;;;4.20;92.50;;;;;;4994858;28;20206;-77
2020/12/05 03:31:45;;;;;;;29.88;27.52;;;4.20;91.90;;;;;;4994928;28;20195;-77
2020/12/05 03:34:12;;;;;;;29.17;27.08;;;4.10;91.20;;;;;;4995175;28;20199;-77
2020/12/05 03:36:38;;;;;;;29.38;27.15;;;4.10;90.80;;;;;;4994806;28;20228;-77
2020/12/05 03:39:05;;;;;;;28.90;26.63;;;4.10;90.50;;;;;;4994931;28;20194;-77
2020/12/05 03:41:31;;;;;;;37.75;28.80;;;4.10;90.80;;;;;;4994620;28;20198;-77
2020/12/05 03:43:57;;;;;;;121.35;36.55;;;4.00;93.70;;;;;;4994837;28;20218;-77
2020/12/05 03:46:24;;;;;;;201.68;43.80;;;3.90;92.70;;;;;;4994623;28;20224;-77
2020/12/05 03:48:50;;;;;;;1999.90;364.77;;;3.90;94.70;;;;;;4994630;28;20213;-77
2020/12/05 03:51:18;;;;;;;29.30;26.90;;;4.00;95.20;;;;;;4994209;28;20198;-77
2020/12/05 03:53:44;;;;;;;26.83;24.83;;;4.00;93.70;;;;;;4994205;28;20648;-77
2020/12/05 03:56:11;;;;;;;27.95;25.67;;;4.00;93.90;;;;;;4994316;28;20569;-77
2020/12/05 03:58:38;;;;;;;28.08;25.88;;;4.00;93.10;;;;;;4994642;28;20199;-77
2020/12/05 04:01:04;;;;;;;27.52;25.23;;;4.00;92.80;;;;;;4994218;28;20191;-77
2020/12/05 04:03:30;;;;;;;28.40;26.38;;;4.00;92.40;;;;;;4994454;28;20222;-77
2020/12/05 04:05:57;;;;;;;29.08;26.67;;;4.00;91.90;;;;;;4994262;28;20222;-77
2020/12/05 04:08:24;;;;;;;28.98;26.70;;;4.00;91.50;;;;;;4994235;28;20211;-77
2020/12/05 04:10:50;;;;;;;30.20;27.85;;;4.20;90.70;;;;;;4994318;28;20230;-77
2020/12/05 04:13:17;;;;;;;30.13;27.83;;;4.10;90.30;;;;;;4993332;28;20200;-77
2020/12/05 04:15:43;;;;;;;28.48;26.27;;;4.00;90.40;;;;;;4994014;28;20254;-77
2020/12/05 04:18:10;;;;;;;30.67;28.27;;;4.00;90.50;;;;;;4993899;28;20681;-77
2020/12/05 04:20:36;;;;;;;29.80;27.50;;;3.80;90.70;;;;;;4993958;28;20674;-77
2020/12/05 04:23:02;;;;;;;685.45;131.98;;;3.80;91.20;;;;;;4993832;28;20195;-77
2020/12/05 04:25:29;;;;;;;26.90;24.67;;;3.90;91.80;;;;;;4993889;28;20231;-77
2020/12/05 04:27:56;;;;;;;27.63;25.20;;;3.80;94.90;;;;;;4993305;28;20195;-77
2020/12/05 04:30:22;;;;;;;26.83;24.73;;;3.80;94.20;;;;;;4994044;28;20195;-77
2020/12/05 04:32:49;;;;;;;30.45;27.50;;;3.80;93.60;;;;;;4993983;28;20656;-77
2020/12/05 04:35:15;;;;;;;27.00;24.98;;;3.90;93.00;;;;;;4993830;28;20675;-77
2020/12/05 04:37:41;;;;;;;34.53;26.60;;;3.90;92.30;;;;;;4993430;28;20217;-76
2020/12/05 04:40:08;;;;;;;28.60;26.30;;;3.90;92.40;;;;;;4993774;28;20199;-77
2020/12/05 04:42:44;;;;;;;26.42;24.35;;;3.90;94.50;;;;;;4993861;28;20201;-77
2020/12/05 04:45:10;;;;;;;26.38;24.38;;;4.00;93.30;;;;;;4993694;28;20218;-77
2020/12/05 04:47:39;;;;;;;365.30;69.85;;;4.10;92.50;;;;;;4993298;28;20224;-77
2020/12/05 04:50:06;;;;;;;26.77;24.45;;;4.00;95.90;;;;;;4993843;28;20203;-77
2020/12/05 04:52:42;;;;;;;302.85;52.50;;;3.90;95.10;;;;;;4993712;28;20198;-77
2020/12/05 04:55:08;;;;;;;25.20;23.27;;;3.90;96.60;;;;;;4993708;28;20205;-77
2020/12/05 04:57:44;;;;;;;1987.95;323.52;;;3.90;95.80;;;;;;4993083;28;20789;-76
2020/12/05 05:00:11;;;;;;;25.52;23.35;;;3.90;98.90;;;;;;4993441;28;20225;-77
2020/12/05 05:02:41;;;;;;;1999.90;414.02;;;3.90;99.10;;;;;;4993517;28;20682;-77
2020/12/05 05:05:10;;;;;;;24.70;22.83;;;3.80;98.40;;;;;;4993250;28;20219;-76
2020/12/05 05:07:46;;;;;;;24.73;22.92;;;3.90;97.70;;;;;;4992717;28;20210;-77
2020/12/05 05:10:18;;;;;;;26.15;24.02;;;3.90;95.40;;;;;;5001471;23;20249;-77
2020/12/05 05:12:45;;;;;;;26.73;24.42;;;3.80;94.30;;;;;;4993665;28;20209;-77
2020/12/05 05:15:31;;;;;;;26.27;24.27;;;3.80;94.00;;;;;;4993198;28;20229;-77
2020/12/05 05:18:00;;;;;;;26.50;24.38;;;3.70;93.30;;;;;;4973775;28;20195;-77
2020/12/05 05:20:28;;;;;;;25.92;23.48;;;3.70;93.80;;;;;;4973931;28;20207;-77
2020/12/05 05:23:11;;;;;;;25.80;23.98;;;3.70;94.30;;;;;;4973916;28;20202;-77
2020/12/05 05:25:49;;;;;;;25.50;23.50;;;3.70;94.80;;;;;;4977715;28;20269;-77
2020/12/05 05:28:22;;;;;;;25.60;23.60;;;3.70;94.20;;;;;;4977671;28;20242;-77
2020/12/05 05:31:05;;;;;;;26.00;24.08;;;3.60;94.30;;;;;;4978136;28;20202;-77
2020/12/05 05:33:43;;;;;;;28.50;26.17;;;3.70;94.20;;;;;;4977962;28;20202;-77
2020/12/05 05:36:18;;;;;;;23.25;21.55;;;3.70;94.80;;;;;;4977684;28;20700;-77
2020/12/05 05:38:55;;;;;;;888.80;131.35;;;3.80;95.10;;;;;;4977445;28;20197;-77
2020/12/05 05:41:22;;;;;;;24.33;22.55;;;3.90;94.50;;;;;;4977671;28;20203;-77
2020/12/05 05:43:58;;;;;;;22.73;21.23;;;4.00;96.10;;;;;;4977608;28;20249;-77
2020/12/05 05:46:26;;;;;;;22.90;21.25;;;4.00;94.70;;;;;;4977396;28;20311;-77
2020/12/05 05:48:53;;;;;;;299.58;52.75;;;4.00;94.60;;;;;;4977262;28;20199;-77
2020/12/05 05:51:39;;;;;;;23.75;21.77;;;4.00;96.10;;;;;;4977534;28;20203;-77
2020/12/05 05:54:28;;;;;;;24.75;22.75;;;3.90;96.40;;;;;;4977594;28;20195;-77
2020/12/05 05:56:56;;;;;;;22.65;20.95;;;3.90;96.60;;;;;;4977215;28;20311;-77
2020/12/05 05:59:25;;;;;;;110.00;28.92;;;4.00;96.10;;;;;;4976985;28;20282;-77
2020/12/05 06:01:53;;;;;;;187.40;38.72;;;4.00;95.70;;;;;;4977413;28;20286;-77
2020/12/05 06:04:28;;;;;;;24.05;22.25;;;4.00;96.60;;;;;;4977286;28;20712;-77
2020/12/05 06:06:57;;;;;;;24.50;22.58;;;4.00;96.00;;;;;;4977023;28;20223;-77
2020/12/05 06:09:25;;;;;;;23.92;22.30;;;4.00;95.40;;;;;;4976822;28;20203;-77
2020/12/05 06:11:54;;;;;;;24.25;22.40;;;3.90;94.80;;;;;;4976835;28;20660;-77
2020/12/05 06:14:21;;;;;;;1391.80;188.70;;;3.90;94.60;;;;;;4976745;28;20199;-77
2020/12/05 06:16:51;;;;;;;663.70;101.97;;;3.80;95.00;;;;;;4976627;28;20222;-77
2020/12/05 06:19:18;;;;;;;24.40;22.50;;;3.80;98.80;;;;;;4976619;28;20199;-77
2020/12/05 06:21:48;;;;;;;71.68;26.75;;;3.80;96.90;;;;;;4976772;28;20187;-77
2020/12/05 06:24:16;;;;;;;23.95;22.25;;;3.80;97.70;;;;;;4976866;28;20219;-77
2020/12/05 06:26:45;;;;;;;25.13;23.10;;;3.80;96.10;;;;;;4976536;28;20226;-77
2020/12/05 06:29:12;;;;;;;24.27;22.48;;;3.90;95.60;;;;;;4976294;28;20199;-77
2020/12/05 06:31:41;;;;;;;23.25;21.55;;;3.90;95.20;;;;;;4976869;28;20270;-77
2020/12/05 06:34:09;;;;;;;23.73;22.05;;;3.90;94.10;;;;;;4976852;28;20664;-77
2020/12/05 06:36:40;;;;;;;25.05;22.92;;;3.90;94.10;;;;;;4976048;28;20273;-76
2020/12/05 06:39:19;;;;;;;23.00;21.35;;;3.90;95.60;;;;;;4976437;28;20790;-77
2020/12/05 06:41:48;;;;;;;23.38;21.67;;;3.90;93.50;;;;;;4976410;28;20207;-77
2020/12/05 06:44:17;;;;;;;22.15;20.63;;;3.90;92.40;;;;;;4976534;28;20223;-77
2020/12/05 06:46:52;;;;;;;26.20;22.88;;;3.90;92.30;;;;;;4976449;28;20223;-77
2020/12/05 06:49:49;;;;;;;23.77;22.20;;;3.80;92.70;;;;;;4976212;28;20683;-76
2020/12/05 06:52:37;;;;;;;21.38;19.77;;;3.70;93.30;;;;;;4976130;28;20199;-76
2020/12/05 06:55:11;;;;;;;1999.90;411.30;;;3.60;95.50;;;;;;4976321;28;20274;-76
2020/12/05 06:57:39;;;;;;;1721.03;310.85;;;3.50;96.80;;;;;;4976239;28;20219;-77
2020/12/05 07:00:20;;;;;;;40.67;23.27;;;3.60;98.10;;;;;;4976020;28;20198;-77
2020/12/05 07:02:54;;;;;;;19.73;18.42;;;3.60;98.00;;;;;;4975533;28;20213;-77
2020/12/05 07:05:35;;;;;;;21.92;20.40;;;3.60;96.90;;;;;;4975902;28;20223;-77
2020/12/05 07:08:18;;;;;;;21.70;20.25;;;3.70;95.50;;;;;;4975900;28;20208;-77
2020/12/05 07:10:47;;;;;;;20.80;19.38;;;3.70;94.60;;;;;;4976060;28;20199;-77
2020/12/05 07:13:14;;;;;;;21.92;20.38;;;3.70;94.20;;;;;;4975882;28;20278;-77
2020/12/05 07:15:40;;;;;;;1999.90;641.60;;;3.50;95.10;;;;;;4975795;28;20310;-77
2020/12/05 07:18:09;;;;;;;277.77;44.97;;;3.40;96.60;;;;;;4975701;28;20207;-77
2020/12/05 07:20:37;;;;;;;21.10;19.70;;;3.50;99.00;;;;;;4975919;28;20199;-77
2020/12/05 07:23:04;;;;;;;21.70;20.25;;;3.50;97.90;;;;;;4975311;28;20239;-77
2020/12/05 07:25:30;;;;;;;20.80;19.50;;;3.50;96.20;;;;;;4975154;28;20243;-77
2020/12/05 07:27:57;;;;;;;22.55;20.90;;;3.50;95.80;;;;;;4975363;28;20203;-77
2020/12/05 07:30:23;;;;;;;21.88;20.48;;;3.50;95.10;;;;;;4975266;28;20204;-77
2020/12/05 07:32:51;;;;;;;20.98;19.67;;;3.40;95.00;;;;;;4975840;28;20209;-77
2020/12/05 07:35:18;;;;;;;292.98;48.55;;;3.40;94.90;;;;;;4975453;28;20653;-77
2020/12/05 07:37:46;;;;;;;1210.22;163.02;;;3.50;97.90;;;;;;4975045;28;20569;-77
2020/12/05 07:40:13;;;;;;;1999.90;449.90;;;3.40;97.40;;;;;;4975426;28;20679;-77
2020/12/05 07:42:41;;;;;;;36.22;19.17;;;3.50;98.90;;;;;;4975476;28;20229;-77
2020/12/05 07:45:09;;;;;;;21.08;19.33;;;3.60;99.90;;;;;;4975065;28;20696;-77
2020/12/05 07:47:36;;;;;;;1999.90;496.80;;;3.60;99.10;;;;;;4974264;28;20576;-77
2020/12/05 07:50:03;;;;;;;20.77;18.50;;;3.60;99.60;;;;;;4974939;28;20660;-77
2020/12/05 07:52:30;;;;;;;18.98;17.67;;;3.70;99.90;;;;;;4975096;28;20202;-77
2020/12/05 07:54:58;;;;;;;20.95;19.55;;;3.80;99.50;;;;;;4975169;28;20191;-77
2020/12/05 07:57:25;;;;;;;1999.90;640.55;;;3.90;98.10;;;;;;4975119;28;20233;-77
2020/12/05 08:00:00;;;;;;;18.38;16.98;;;3.80;98.80;;;;;;4975189;28;20205;-77
2020/12/05 08:02:50;;;;;;;18.73;17.50;;;3.80;99.90;;;;;;4974635;28;20206;-76
2020/12/05 08:05:36;;;;;;;17.98;16.80;;;3.80;98.90;;;;;;4961814;28;20223;-76
2020/12/05 08:08:05;;;;;;;18.30;17.00;;;3.80;97.50;;;;;;4974984;28;20294;-76
2020/12/05 08:10:34;;;;;;;18.70;17.70;;;3.80;97.20;;;;;;4974769;28;20211;-77
2020/12/05 08:13:24;;;;;;;1313.22;193.90;;;3.80;96.70;;;;;;4974696;28;20200;-77
2020/12/05 08:15:57;;;;;;;17.25;16.25;;;3.90;97.30;;;;;;4974721;28;20251;-77
2020/12/05 08:18:26;;;;;;;18.00;16.80;;;3.90;99.00;;;;;;4974749;28;20201;-77
2020/12/05 08:20:53;;;;;;;19.00;17.85;;;3.90;98.20;;;;;;4974507;28;20287;-77
2020/12/05 08:23:27;;;;;;;17.77;16.63;;;3.90;97.50;;;;;;4974481;28;20203;-77
2020/12/05 08:25:58;;;;;;;19.27;17.92;;;3.90;96.40;;;;;;4974498;28;20222;-77
2020/12/05 08:28:25;;;;;;;19.80;18.20;;;4.00;95.80;;;;;;4974551;28;20202;-77
2020/12/05 08:30:54;;;;;;;18.88;17.77;;;4.10;94.30;;;;;;4974376;28;20205;-77
2020/12/05 08:33:20;;;;;;;18.95;17.75;;;4.10;93.70;;;;;;4974262;28;20199;-77
2020/12/05 08:35:47;;;;;;;17.63;16.65;;;4.10;93.70;;;;;;4974198;28;20211;-77
2020/12/05 08:38:22;;;;;;;16.73;15.82;;;4.20;93.80;;;;;;4974419;28;20196;-77
2020/12/05 08:40:59;;;;;;;17.83;16.75;;;4.40;93.50;;;;;;4974439;28;20343;-77
2020/12/05 08:43:26;;;;;;;17.98;16.98;;;4.50;93.20;;;;;;4974204;28;20579;-77
2020/12/05 08:45:53;;;;;;;19.73;18.42;;;4.60;92.50;;;;;;4973974;28;20223;-77
2020/12/05 08:48:20;;;;;;;18.02;17.02;;;4.70;92.00;;;;;;4974271;28;20250;-77
2020/12/05 08:50:47;;;;;;;18.15;17.02;;;4.80;91.40;;;;;;4974404;28;20192;-77
2020/12/05 08:53:15;;;;;;;17.50;16.55;;;4.80;91.00;;;;;;4974313;28;20212;-76
2020/12/05 08:55:46;;;;;;;17.83;16.90;;;4.80;90.90;;;;;;4973604;28;20216;-77
2020/12/05 08:58:14;;;;;;;18.77;17.35;;;4.80;90.60;;;;;;4973871;28;20196;-77
2020/12/05 09:00:41;;;;;;;19.65;18.55;;;4.80;90.40;;;;;;4974084;28;20196;-77
2020/12/05 09:03:19;;;;;;;18.52;17.50;;;4.80;90.30;;;;;;4973781;28;20668;-77
2020/12/05 09:05:47;;;;;;;19.20;17.90;;;4.90;89.60;;;;;;4973515;28;20230;-77
2020/12/05 09:08:21;;;;;;;20.40;19.10;;;4.80;89.70;;;;;;4973995;28;20570;-77
2020/12/05 09:10:49;;;;;;;19.83;18.73;;;4.90;89.80;;;;;;4974036;28;20572;-77
2020/12/05 09:13:16;;;;;;;17.95;16.85;;;4.90;89.70;;;;;;4973794;28;20203;-77
2020/12/05 09:15:57;;;;;;;18.83;17.40;;;5.00;89.50;;;;;;4973660;28;20225;-77
2020/12/05 09:18:24;;;;;;;20.10;18.80;;;5.00;90.80;;;;;;4974107;28;20687;-77
2020/12/05 09:20:51;;;;;;;18.90;17.80;;;4.90;90.90;;;;;;4973761;28;20255;-77
2020/12/05 09:23:27;;;;;;;18.48;17.42;;;5.00;90.70;;;;;;4973849;28;20736;-77
2020/12/05 09:26:01;;;;;;;18.77;17.77;;;5.10;90.30;;;;;;4973690;28;20293;-77
2020/12/05 09:28:28;;;;;;;20.63;19.15;;;5.30;90.20;;;;;;4973886;28;20232;-77
2020/12/05 09:30:55;;;;;;;19.65;18.52;;;5.50;89.50;;;;;;4973815;28;20530;-77
2020/12/05 09:33:22;;;;;;;18.63;17.52;;;5.60;89.20;;;;;;4973982;28;20197;-77
2020/12/05 09:35:49;;;;;;;18.48;17.48;;;5.70;88.70;;;;;;4973698;28;20218;-77
2020/12/05 09:38:16;;;;;;;19.15;17.90;;;5.90;88.30;;;;;;4973852;28;20204;-77
2020/12/05 09:40:43;;;;;;;19.92;18.58;;;5.90;86.70;;;;;;4973324;28;20207;-77
2020/12/05 09:43:09;;;;;;;20.48;19.08;;;5.80;86.40;;;;;;4973496;28;20284;-77
2020/12/05 09:45:37;;;;;;;18.90;17.80;;;5.80;86.30;;;;;;4973350;28;20302;-77
2020/12/05 09:48:03;;;;;;;227.32;35.30;;;5.70;87.80;;;;;;4973671;28;20241;-77
2020/12/05 09:50:30;;;;;;;18.88;17.70;;;5.80;88.70;;;;;;4973543;28;20194;-77
2020/12/05 09:52:57;;;;;;;49.45;23.05;;;5.80;88.20;;;;;;4973631;28;20199;-77
2020/12/05 09:55:24;;;;;;;21.63;19.95;;;5.90;87.80;;;;;;4973531;28;20206;-77
2020/12/05 09:57:50;;;;;;;19.80;18.38;;;6.00;89.90;;;;;;4973873;28;20203;-77
2020/12/05 10:00:16;;;;;;;21.35;19.55;;;5.90;88.00;;;;;;4973853;28;20217;-77
2020/12/05 10:02:43;;;;;;;21.33;20.08;;;6.00;87.50;;;;;;4973437;28;20299;-77
2020/12/05 10:05:11;;;;;;;22.50;21.10;;;6.10;87.10;;;;;;4973351;28;20580;-77
2020/12/05 10:07:38;;;;;;;21.30;20.00;;;6.20;86.80;;;;;;4974318;28;20220;-77
2020/12/05 10:10:06;;;;;;;22.00;20.70;;;6.20;86.20;;;;;;4974136;28;20568;-77
2020/12/05 10:12:32;;;;;;;21.58;20.23;;;6.40;85.60;;;;;;4977475;28;20195;-77
2020/12/05 10:14:59;;;;;;;22.45;21.05;;;6.30;85.40;;;;;;4977640;28;20250;-77
2020/12/05 10:17:25;;;;;;;22.00;20.60;;;6.50;85.30;;;;;;4977073;28;20220;-77
2020/12/05 10:19:52;;;;;;;20.35;19.15;;;6.30;84.70;;;;;;4977244;28;20244;-77
2020/12/05 10:22:19;;;;;;;24.05;21.95;;;6.20;85.20;;;;;;4976935;28;20204;-77
2020/12/05 10:24:45;;;;;;;23.13;21.73;;;6.20;85.10;;;;;;4979280;28;20214;-77
2020/12/05 10:27:12;;;;;;;22.10;20.90;;;6.30;84.60;;;;;;4980433;28;20223;-77
2020/12/05 10:29:38;;;;;;;22.25;21.13;;;6.30;83.90;;;;;;4980807;28;20207;-77
2020/12/05 10:32:04;;;;;;;20.85;19.45;;;6.40;83.60;;;;;;4980980;28;20665;-77
2020/12/05 10:34:31;;;;;;;21.83;20.52;;;6.30;88.80;;;;;;4979274;28;20192;-77
2020/12/05 10:36:58;;;;;;;22.63;21.33;;;6.10;86.60;;;;;;4978780;28;20820;-77
2020/12/05 10:39:24;;;;;;;23.35;21.83;;;6.20;86.60;;;;;;4978459;28;20203;-77
2020/12/05 10:41:51;;;;;;;21.75;20.45;;;6.20;85.80;;;;;;4976655;28;20663;-77
2020/12/05 10:44:18;;;;;;;23.38;21.98;;;6.30;85.10;;;;;;4976751;28;20730;-77
2020/12/05 10:46:45;;;;;;;22.70;21.17;;;6.20;84.80;;;;;;4976627;28;20230;-77
2020/12/05 10:49:12;;;;;;;24.13;22.63;;;6.30;84.70;;;;;;4976576;28;20207;-77
2020/12/05 10:51:40;;;;;;;22.45;21.05;;;6.20;84.30;;;;;;4975628;28;20198;-77
2020/12/05 10:54:07;;;;;;;22.13;20.83;;;6.20;83.50;;;;;;4976204;28;20206;-77
2020/12/05 10:56:34;;;;;;;22.75;21.35;;;6.10;83.60;;;;;;4976037;28;20227;-77
2020/12/05 10:59:00;;;;;;;22.60;21.25;;;6.20;83.50;;;;;;4976187;28;20192;-77
2020/12/05 11:01:27;;;;;;;23.42;21.83;;;6.10;83.80;;;;;;4976287;28;20205;-77
2020/12/05 11:03:53;;;;;;;24.52;23.02;;;6.00;84.00;;;;;;4976642;28;20590;-77
2020/12/05 11:06:20;;;;;;;23.27;21.88;;;5.90;84.10;;;;;;4975894;28;20613;-77
2020/12/05 11:08:47;;;;;;;24.00;22.50;;;5.80;84.50;;;;;;4975996;28;20218;-77
2020/12/05 11:11:14;;;;;;;23.55;21.85;;;5.80;85.30;;;;;;4976189;28;20207;-77
2020/12/05 11:13:40;;;;;;;24.40;22.80;;;5.80;87.20;;;;;;4975991;28;20203;-77
2020/12/05 11:16:07;;;;;;;22.08;20.63;;;5.80;89.50;;;;;;4975738;28;20212;-77
2020/12/05 11:18:33;;;;;;;22.88;21.48;;;5.80;89.50;;;;;;4976117;28;20204;-77
2020/12/05 11:20:59;;;;;;;23.33;21.67;;;5.90;87.70;;;;;;4975496;28;20205;-78
2020/12/05 11:23:26;;;;;;;23.50;21.80;;;6.00;86.50;;;;;;4975550;28;20204;-77
2020/12/05 11:25:53;;;;;;;22.08;20.77;;;6.00;88.20;;;;;;4975460;28;20322;-78
2020/12/05 11:28:21;;;;;;;24.50;22.88;;;6.10;87.20;;;;;;4975617;28;20207;-78
2020/12/05 11:30:48;;;;;;;25.40;23.55;;;6.20;84.70;;;;;;4975783;28;20538;-77
2020/12/05 11:33:14;;;;;;;24.83;23.23;;;6.00;84.30;;;;;;4975861;28;20202;-77
2020/12/05 11:35:41;;;;;;;25.67;23.98;;;6.00;84.50;;;;;;4975542;28;20226;-78
2020/12/05 11:38:07;;;;;;;24.33;22.77;;;6.00;84.50;;;;;;4988371;23;20350;-77
2020/12/05 11:40:33;;;;;;;25.10;23.40;;;6.00;84.70;;;;;;5013772;28;20207;-77
2020/12/05 11:43:00;;;;;;;23.88;22.48;;;6.00;84.50;;;;;;5014989;28;20202;-77
2020/12/05 11:45:27;;;;;;;24.65;23.15;;;6.10;84.50;;;;;;5016178;28;20223;-77
2020/12/05 11:47:53;;;;;;;25.17;23.55;;;6.10;84.50;;;;;;5006346;28;20652;-77
2020/12/05 11:50:20;;;;;;;24.15;22.55;;;6.10;86.70;;;;;;4997239;28;20718;-77
2020/12/05 11:52:47;;;;;;;23.25;21.75;;;6.10;86.40;;;;;;4995588;28;20201;-77
2020/12/05 11:55:13;;;;;;;522.85;73.85;;;6.00;87.20;;;;;;4995186;28;20200;-77
2020/12/05 11:57:40;;;;;;;26.25;24.25;;;6.20;87.70;;;;;;5002277;28;20214;-77
2020/12/05 12:00:06;;;;;;;24.50;22.77;;;6.10;88.80;;;;;;5013870;28;20204;-78
2020/12/05 12:02:33;;;;;;;24.38;22.90;;;6.00;87.60;;;;;;5010277;28;20216;-77
2020/12/05 12:05:00;;;;;;;25.52;23.80;;;6.00;87.30;;;;;;4994714;28;20225;-77
2020/12/05 12:07:28;;;;;;;23.58;22.17;;;6.10;87.20;;;;;;4994491;28;20223;-77
2020/12/05 12:09:56;;;;;;;24.92;23.27;;;6.20;86.10;;;;;;5000321;28;20186;-77
2020/12/05 12:12:23;;;;;;;24.85;23.13;;;6.30;85.70;;;;;;5014054;28;20289;-77
2020/12/05 12:14:49;;;;;;;24.92;23.33;;;6.50;85.00;;;;;;5014043;28;20193;-77
2020/12/05 12:17:15;;;;;;;25.63;23.83;;;6.50;84.70;;;;;;5013679;28;20593;-77
2020/12/05 12:19:43;;;;;;;23.65;21.92;;;6.70;84.30;;;;;;5013969;28;20194;-77
2020/12/05 12:22:09;;;;;;;24.10;22.60;;;6.70;84.30;;;;;;5007772;28;20194;-77
2020/12/05 12:24:36;;;;;;;26.25;24.65;;;6.70;84.50;;;;;;4994187;28;20199;-77
2020/12/05 12:27:03;;;;;;;24.27;22.80;;;6.60;84.00;;;;;;5001557;28;20313;-77
2020/12/05 12:29:30;;;;;;;232.27;37.80;;;6.60;86.30;;;;;;4994042;28;20209;-77
2020/12/05 12:31:56;;;;;;;24.10;22.60;;;6.50;87.70;;;;;;4994452;28;20657;-77
2020/12/05 12:34:22;;;;;;;24.60;23.00;;;6.50;88.30;;;;;;4993582;28;20576;-77
2020/12/05 12:36:51;;;;;;;24.20;22.70;;;6.50;88.10;;;;;;4993909;28;20255;-77
2020/12/05 12:39:18;;;;;;;25.10;23.27;;;6.60;86.60;;;;;;4994060;28;20290;-77
2020/12/05 12:41:44;;;;;;;25.05;23.55;;;6.60;85.10;;;;;;4995676;28;20206;-77
2020/12/05 12:44:11;;;;;;;25.65;23.55;;;6.60;85.20;;;;;;5013885;28;20198;-77